sensor_id;sensor_type;location;lat;lon;timestamp;P1;durP1;ratioP1;P2;durP2;ratioP2
76063;SDS011;64762;52.006;8.424;2023-04-07T00:02:24;28.07;;;12.13;;
76063;SDS011;64762;52.006;8.424;2023-04-07T00:04:51;24.83;;;10.88;;
76063;SDS011;64762;52.006;8.424;2023-04-07T00:07:16;25.17;;;10.30;;
76063;SDS011;64762;52.006;8.424;2023-04-07T00:09:41;24.80;;;11.17;;
76063;SDS011;64762;52.006;8.424;2023-04-07T00:12:07;18.63;;;9.17;;
76063;SDS011;64762;52.006;8.424;2023-04-07T00:14:32;26.50;;;10.23;;
76063;SDS011;64762;52.006;8.424;2023-04-07T00:16:57;22.57;;;10.60;;
76063;SDS011;64762;52.006;8.424;2023-04-07T00:19:22;24.43;;;9.73;;
76063;SDS011;64762;52.006;8.424;2023-04-07T00:21:48;26.73;;;10.73;;
76063;SDS011;64762;52.006;8.424;2023-04-07T00:24:13;24.43;;;9.27;;
76063;SDS011;64762;52.006;8.424;2023-04-07T00:26:38;26.50;;;10.73;;
76063;SDS011;64762;52.006;8.424;2023-04-07T00:29:04;22.13;;;9.53;;
76063;SDS011;64762;52.006;8.424;2023-04-07T00:31:29;20.37;;;8.90;;
76063;SDS011;64762;52.006;8.424;2023-04-07T00:33:54;26.27;;;9.63;;
76063;SDS011;64762;52.006;8.424;2023-04-07T00:36:21;25.55;;;9.65;;
76063;SDS011;64762;52.006;8.424;2023-04-07T00:38:47;24.40;;;9.93;;
76063;SDS011;64762;52.006;8.424;2023-04-07T00:41:12;21.60;;;9.17;;
76063;SDS011;64762;52.006;8.424;2023-04-07T00:43:37;22.63;;;10.20;;
76063;SDS011;64762;52.006;8.424;2023-04-07T00:46:03;19.92;;;9.02;;
76063;SDS011;64762;52.006;8.424;2023-04-07T00:48:29;22.13;;;9.38;;
76063;SDS011;64762;52.006;8.424;2023-04-07T00:50:55;21.90;;;9.77;;
76063;SDS011;64762;52.006;8.424;2023-04-07T00:53:34;22.27;;;8.82;;
76063;SDS011;64762;52.006;8.424;2023-04-07T00:55:59;20.98;;;9.35;;
76063;SDS011;64762;52.006;8.424;2023-04-07T00:58:25;23.47;;;9.67;;
76063;SDS011;64762;52.006;8.424;2023-04-07T01:00:51;18.63;;;8.93;;
76063;SDS011;64762;52.006;8.424;2023-04-07T01:03:24;20.85;;;9.00;;
76063;SDS011;64762;52.006;8.424;2023-04-07T01:06:02;25.15;;;8.93;;
76063;SDS011;64762;52.006;8.424;2023-04-07T01:08:32;21.00;;;8.02;;
76063;SDS011;64762;52.006;8.424;2023-04-07T01:11:22;18.10;;;8.40;;
76063;SDS011;64762;52.006;8.424;2023-04-07T01:13:50;19.98;;;7.93;;
76063;SDS011;64762;52.006;8.424;2023-04-07T01:16:29;19.55;;;8.20;;
76063;SDS011;64762;52.006;8.424;2023-04-07T01:18:56;20.65;;;8.15;;
76063;SDS011;64762;52.006;8.424;2023-04-07T01:21:28;15.38;;;6.18;;
76063;SDS011;64762;52.006;8.424;2023-04-07T01:24:00;18.52;;;7.32;;
76063;SDS011;64762;52.006;8.424;2023-04-07T01:26:30;18.52;;;7.50;;
76063;SDS011;64762;52.006;8.424;2023-04-07T01:31:50;18.73;;;7.30;;
76063;SDS011;64762;52.006;8.424;2023-04-07T01:34:18;20.45;;;8.43;;
76063;SDS011;64762;52.006;8.424;2023-04-07T01:36:45;18.20;;;8.07;;
76063;SDS011;64762;52.006;8.424;2023-04-07T01:39:10;17.08;;;6.72;;
76063;SDS011;64762;52.006;8.424;2023-04-07T01:41:36;18.63;;;7.77;;
76063;SDS011;64762;52.006;8.424;2023-04-07T01:44:02;18.05;;;8.10;;
76063;SDS011;64762;52.006;8.424;2023-04-07T01:46:28;19.33;;;7.85;;
76063;SDS011;64762;52.006;8.424;2023-04-07T01:48:54;18.05;;;7.93;;
76063;SDS011;64762;52.006;8.424;2023-04-07T01:51:20;18.70;;;7.10;;
76063;SDS011;64762;52.006;8.424;2023-04-07T01:53:46;23.92;;;9.00;;
76063;SDS011;64762;52.006;8.424;2023-04-07T01:56:12;19.95;;;8.15;;
76063;SDS011;64762;52.006;8.424;2023-04-07T01:58:37;19.67;;;8.77;;
76063;SDS011;64762;52.006;8.424;2023-04-07T02:01:05;20.38;;;8.00;;
76063;SDS011;64762;52.006;8.424;2023-04-07T02:03:53;15.07;;;7.57;;
76063;SDS011;64762;52.006;8.424;2023-04-07T02:06:19;17.85;;;8.10;;
76063;SDS011;64762;52.006;8.424;2023-04-07T02:08:48;24.30;;;8.75;;
76063;SDS011;64762;52.006;8.424;2023-04-07T02:11:17;18.33;;;7.10;;
76063;SDS011;64762;52.006;8.424;2023-04-07T02:13:45;20.83;;;8.38;;
76063;SDS011;64762;52.006;8.424;2023-04-07T02:16:12;17.42;;;7.65;;
76063;SDS011;64762;52.006;8.424;2023-04-07T02:18:38;20.45;;;8.68;;
76063;SDS011;64762;52.006;8.424;2023-04-07T02:21:03;18.58;;;9.38;;
76063;SDS011;64762;52.006;8.424;2023-04-07T02:23:29;18.25;;;8.35;;
76063;SDS011;64762;52.006;8.424;2023-04-07T02:25:56;19.13;;;7.63;;
76063;SDS011;64762;52.006;8.424;2023-04-07T02:28:22;18.77;;;8.95;;
76063;SDS011;64762;52.006;8.424;2023-04-07T02:30:48;22.13;;;8.40;;
76063;SDS011;64762;52.006;8.424;2023-04-07T02:33:13;17.05;;;7.95;;
76063;SDS011;64762;52.006;8.424;2023-04-07T02:35:38;19.67;;;8.03;;
76063;SDS011;64762;52.006;8.424;2023-04-07T02:38:04;15.47;;;6.83;;
76063;SDS011;64762;52.006;8.424;2023-04-07T02:40:29;17.23;;;7.30;;
76063;SDS011;64762;52.006;8.424;2023-04-07T02:42:54;16.90;;;7.30;;
76063;SDS011;64762;52.006;8.424;2023-04-07T02:45:20;20.50;;;8.17;;
76063;SDS011;64762;52.006;8.424;2023-04-07T02:47:45;17.73;;;8.00;;
76063;SDS011;64762;52.006;8.424;2023-04-07T02:50:10;19.27;;;7.47;;
76063;SDS011;64762;52.006;8.424;2023-04-07T02:52:36;20.60;;;7.82;;
76063;SDS011;64762;52.006;8.424;2023-04-07T02:55:01;22.97;;;8.63;;
76063;SDS011;64762;52.006;8.424;2023-04-07T02:57:27;19.60;;;9.10;;
76063;SDS011;64762;52.006;8.424;2023-04-07T02:59:52;20.47;;;8.07;;
76063;SDS011;64762;52.006;8.424;2023-04-07T03:02:19;21.00;;;9.82;;
76063;SDS011;64762;52.006;8.424;2023-04-07T03:04:45;20.37;;;7.87;;
76063;SDS011;64762;52.006;8.424;2023-04-07T03:07:10;22.40;;;8.80;;
76063;SDS011;64762;52.006;8.424;2023-04-07T03:09:35;20.60;;;8.37;;
76063;SDS011;64762;52.006;8.424;2023-04-07T03:12:01;19.07;;;8.63;;
76063;SDS011;64762;52.006;8.424;2023-04-07T03:14:26;20.40;;;8.20;;
76063;SDS011;64762;52.006;8.424;2023-04-07T03:16:52;20.88;;;8.23;;
76063;SDS011;64762;52.006;8.424;2023-04-07T03:19:17;19.40;;;8.20;;
76063;SDS011;64762;52.006;8.424;2023-04-07T03:21:42;23.43;;;8.50;;
76063;SDS011;64762;52.006;8.424;2023-04-07T03:24:07;13.37;;;5.83;;
76063;SDS011;64762;52.006;8.424;2023-04-07T03:26:33;21.77;;;8.13;;
76063;SDS011;64762;52.006;8.424;2023-04-07T03:28:58;20.73;;;8.50;;
76063;SDS011;64762;52.006;8.424;2023-04-07T03:31:23;22.53;;;8.07;;
76063;SDS011;64762;52.006;8.424;2023-04-07T03:33:49;18.90;;;9.20;;
76063;SDS011;64762;52.006;8.424;2023-04-07T03:36:14;25.17;;;8.60;;
76063;SDS011;64762;52.006;8.424;2023-04-07T03:38:41;21.45;;;8.63;;
76063;SDS011;64762;52.006;8.424;2023-04-07T03:41:06;20.90;;;8.53;;
76063;SDS011;64762;52.006;8.424;2023-04-07T03:43:31;19.93;;;7.87;;
76063;SDS011;64762;52.006;8.424;2023-04-07T03:45:57;20.00;;;8.50;;
76063;SDS011;64762;52.006;8.424;2023-04-07T03:48:22;22.83;;;8.40;;
76063;SDS011;64762;52.006;8.424;2023-04-07T03:50:47;21.53;;;8.67;;
76063;SDS011;64762;52.006;8.424;2023-04-07T03:53:13;20.50;;;7.90;;
76063;SDS011;64762;52.006;8.424;2023-04-07T03:55:40;21.48;;;9.68;;
76063;SDS011;64762;52.006;8.424;2023-04-07T03:58:05;22.47;;;9.13;;
76063;SDS011;64762;52.006;8.424;2023-04-07T04:00:31;19.43;;;7.87;;
76063;SDS011;64762;52.006;8.424;2023-04-07T04:02:57;22.50;;;9.80;;
76063;SDS011;64762;52.006;8.424;2023-04-07T04:05:23;22.73;;;8.45;;
76063;SDS011;64762;52.006;8.424;2023-04-07T04:07:48;22.47;;;9.30;;
76063;SDS011;64762;52.006;8.424;2023-04-07T04:10:15;28.27;;;9.40;;
76063;SDS011;64762;52.006;8.424;2023-04-07T04:12:40;18.10;;;8.27;;
76063;SDS011;64762;52.006;8.424;2023-04-07T04:15:06;23.93;;;9.63;;
76063;SDS011;64762;52.006;8.424;2023-04-07T04:17:31;24.83;;;9.02;;
76063;SDS011;64762;52.006;8.424;2023-04-07T04:19:57;23.07;;;9.20;;
76063;SDS011;64762;52.006;8.424;2023-04-07T04:22:22;22.87;;;8.20;;
76063;SDS011;64762;52.006;8.424;2023-04-07T04:24:47;25.33;;;9.20;;
76063;SDS011;64762;52.006;8.424;2023-04-07T04:27:13;25.43;;;10.67;;
76063;SDS011;64762;52.006;8.424;2023-04-07T04:29:38;23.00;;;9.07;;
76063;SDS011;64762;52.006;8.424;2023-04-07T04:32:06;25.67;;;9.93;;
76063;SDS011;64762;52.006;8.424;2023-04-07T04:34:31;26.33;;;10.57;;
76063;SDS011;64762;52.006;8.424;2023-04-07T04:37:14;25.20;;;10.77;;
76063;SDS011;64762;52.006;8.424;2023-04-07T04:39:45;25.98;;;10.18;;
76063;SDS011;64762;52.006;8.424;2023-04-07T04:42:10;22.35;;;9.48;;
76063;SDS011;64762;52.006;8.424;2023-04-07T04:44:36;27.35;;;10.27;;
76063;SDS011;64762;52.006;8.424;2023-04-07T04:47:01;21.25;;;8.13;;
76063;SDS011;64762;52.006;8.424;2023-04-07T04:49:29;22.05;;;9.60;;
76063;SDS011;64762;52.006;8.424;2023-04-07T04:51:55;25.75;;;9.20;;
76063;SDS011;64762;52.006;8.424;2023-04-07T04:54:22;27.10;;;10.10;;
76063;SDS011;64762;52.006;8.424;2023-04-07T04:56:49;27.13;;;9.70;;
76063;SDS011;64762;52.006;8.424;2023-04-07T04:59:18;26.48;;;10.20;;
76063;SDS011;64762;52.006;8.424;2023-04-07T05:01:43;26.33;;;10.63;;
76063;SDS011;64762;52.006;8.424;2023-04-07T05:04:09;25.27;;;10.25;;
76063;SDS011;64762;52.006;8.424;2023-04-07T05:06:35;25.85;;;10.88;;
76063;SDS011;64762;52.006;8.424;2023-04-07T05:09:00;28.17;;;10.27;;
76063;SDS011;64762;52.006;8.424;2023-04-07T05:11:25;23.10;;;9.68;;
76063;SDS011;64762;52.006;8.424;2023-04-07T05:13:51;24.58;;;9.98;;
76063;SDS011;64762;52.006;8.424;2023-04-07T05:16:16;29.80;;;11.93;;
76063;SDS011;64762;52.006;8.424;2023-04-07T05:18:41;25.98;;;10.48;;
76063;SDS011;64762;52.006;8.424;2023-04-07T05:21:07;25.50;;;10.70;;
76063;SDS011;64762;52.006;8.424;2023-04-07T05:23:32;24.23;;;9.27;;
76063;SDS011;64762;52.006;8.424;2023-04-07T05:25:58;27.07;;;9.20;;
76063;SDS011;64762;52.006;8.424;2023-04-07T05:28:23;26.67;;;10.48;;
76063;SDS011;64762;52.006;8.424;2023-04-07T05:30:49;24.27;;;10.40;;
76063;SDS011;64762;52.006;8.424;2023-04-07T05:33:15;24.25;;;10.38;;
76063;SDS011;64762;52.006;8.424;2023-04-07T05:35:43;26.75;;;10.80;;
76063;SDS011;64762;52.006;8.424;2023-04-07T05:38:08;25.60;;;10.52;;
76063;SDS011;64762;52.006;8.424;2023-04-07T05:40:35;22.42;;;9.38;;
76063;SDS011;64762;52.006;8.424;2023-04-07T05:43:01;24.15;;;9.80;;
76063;SDS011;64762;52.006;8.424;2023-04-07T05:45:26;24.23;;;9.15;;
76063;SDS011;64762;52.006;8.424;2023-04-07T05:47:51;24.07;;;9.70;;
76063;SDS011;64762;52.006;8.424;2023-04-07T05:50:17;33.50;;;11.60;;
76063;SDS011;64762;52.006;8.424;2023-04-07T05:52:42;26.95;;;10.82;;
76063;SDS011;64762;52.006;8.424;2023-04-07T05:55:08;25.33;;;10.90;;
76063;SDS011;64762;52.006;8.424;2023-04-07T05:57:33;27.50;;;11.07;;
76063;SDS011;64762;52.006;8.424;2023-04-07T05:59:58;29.83;;;11.37;;
76063;SDS011;64762;52.006;8.424;2023-04-07T06:02:24;31.30;;;10.60;;
76063;SDS011;64762;52.006;8.424;2023-04-07T06:04:49;26.38;;;11.30;;
76063;SDS011;64762;52.006;8.424;2023-04-07T06:07:14;26.27;;;9.27;;
76063;SDS011;64762;52.006;8.424;2023-04-07T06:09:40;25.67;;;10.10;;
76063;SDS011;64762;52.006;8.424;2023-04-07T06:12:06;24.08;;;9.90;;
76063;SDS011;64762;52.006;8.424;2023-04-07T06:14:32;24.55;;;11.15;;
76063;SDS011;64762;52.006;8.424;2023-04-07T06:16:57;26.27;;;9.90;;
76063;SDS011;64762;52.006;8.424;2023-04-07T06:19:22;30.97;;;11.37;;
76063;SDS011;64762;52.006;8.424;2023-04-07T06:21:48;24.70;;;9.73;;
76063;SDS011;64762;52.006;8.424;2023-04-07T06:24:13;22.93;;;9.53;;
76063;SDS011;64762;52.006;8.424;2023-04-07T06:26:38;20.13;;;8.53;;
76063;SDS011;64762;52.006;8.424;2023-04-07T06:29:04;18.25;;;7.18;;
76063;SDS011;64762;52.006;8.424;2023-04-07T06:31:31;22.73;;;9.60;;
76063;SDS011;64762;52.006;8.424;2023-04-07T06:33:57;19.15;;;7.72;;
76063;SDS011;64762;52.006;8.424;2023-04-07T06:36:23;25.40;;;9.00;;
76063;SDS011;64762;52.006;8.424;2023-04-07T06:38:48;22.83;;;10.05;;
76063;SDS011;64762;52.006;8.424;2023-04-07T06:41:14;22.65;;;9.15;;
76063;SDS011;64762;52.006;8.424;2023-04-07T06:43:41;24.27;;;9.60;;
76063;SDS011;64762;52.006;8.424;2023-04-07T06:46:07;20.83;;;8.73;;
76063;SDS011;64762;52.006;8.424;2023-04-07T06:48:33;22.07;;;9.27;;
76063;SDS011;64762;52.006;8.424;2023-04-07T06:50:58;22.10;;;8.77;;
76063;SDS011;64762;52.006;8.424;2023-04-07T06:53:29;24.00;;;8.97;;
76063;SDS011;64762;52.006;8.424;2023-04-07T06:56:02;20.38;;;8.45;;
76063;SDS011;64762;52.006;8.424;2023-04-07T06:58:34;21.13;;;9.25;;
76063;SDS011;64762;52.006;8.424;2023-04-07T07:01:00;25.10;;;10.10;;
76063;SDS011;64762;52.006;8.424;2023-04-07T07:03:26;23.77;;;10.35;;
76063;SDS011;64762;52.006;8.424;2023-04-07T07:05:52;22.15;;;8.82;;
76063;SDS011;64762;52.006;8.424;2023-04-07T07:08:18;19.88;;;7.50;;
76063;SDS011;64762;52.006;8.424;2023-04-07T07:10:45;20.80;;;8.43;;
76063;SDS011;64762;52.006;8.424;2023-04-07T07:13:15;18.25;;;8.07;;
76063;SDS011;64762;52.006;8.424;2023-04-07T07:15:41;21.90;;;8.23;;
76063;SDS011;64762;52.006;8.424;2023-04-07T07:18:07;22.73;;;9.10;;
76063;SDS011;64762;52.006;8.424;2023-04-07T07:20:32;19.77;;;8.20;;
76063;SDS011;64762;52.006;8.424;2023-04-07T07:22:57;19.53;;;7.93;;
76063;SDS011;64762;52.006;8.424;2023-04-07T07:25:23;18.63;;;7.78;;
76063;SDS011;64762;52.006;8.424;2023-04-07T07:27:51;22.38;;;9.45;;
76063;SDS011;64762;52.006;8.424;2023-04-07T07:30:17;21.50;;;8.77;;
76063;SDS011;64762;52.006;8.424;2023-04-07T07:32:45;23.65;;;9.60;;
76063;SDS011;64762;52.006;8.424;2023-04-07T07:35:11;23.20;;;8.33;;
76063;SDS011;64762;52.006;8.424;2023-04-07T07:37:36;21.73;;;8.50;;
76063;SDS011;64762;52.006;8.424;2023-04-07T07:40:02;20.20;;;7.83;;
76063;SDS011;64762;52.006;8.424;2023-04-07T07:42:28;18.98;;;7.18;;
76063;SDS011;64762;52.006;8.424;2023-04-07T07:44:54;19.65;;;7.93;;
76063;SDS011;64762;52.006;8.424;2023-04-07T07:47:20;21.70;;;7.57;;
76063;SDS011;64762;52.006;8.424;2023-04-07T07:49:45;17.90;;;7.45;;
76063;SDS011;64762;52.006;8.424;2023-04-07T07:52:11;15.73;;;6.80;;
76063;SDS011;64762;52.006;8.424;2023-04-07T07:54:36;15.43;;;6.77;;
76063;SDS011;64762;52.006;8.424;2023-04-07T07:57:01;15.23;;;6.77;;
76063;SDS011;64762;52.006;8.424;2023-04-07T07:59:27;17.85;;;7.03;;
76063;SDS011;64762;52.006;8.424;2023-04-07T08:01:52;19.13;;;7.07;;
76063;SDS011;64762;52.006;8.424;2023-04-07T08:04:18;16.20;;;6.37;;
76063;SDS011;64762;52.006;8.424;2023-04-07T08:06:43;16.90;;;6.63;;
76063;SDS011;64762;52.006;8.424;2023-04-07T08:09:08;16.17;;;5.90;;
76063;SDS011;64762;52.006;8.424;2023-04-07T08:11:33;13.50;;;6.43;;
76063;SDS011;64762;52.006;8.424;2023-04-07T08:13:59;13.75;;;5.97;;
76063;SDS011;64762;52.006;8.424;2023-04-07T08:16:24;14.27;;;5.93;;
76063;SDS011;64762;52.006;8.424;2023-04-07T08:18:52;11.32;;;5.13;;
76063;SDS011;64762;52.006;8.424;2023-04-07T08:21:17;14.02;;;5.85;;
76063;SDS011;64762;52.006;8.424;2023-04-07T08:23:44;13.82;;;5.13;;
76063;SDS011;64762;52.006;8.424;2023-04-07T08:26:09;10.95;;;4.47;;
76063;SDS011;64762;52.006;8.424;2023-04-07T08:28:35;14.50;;;6.43;;
76063;SDS011;64762;52.006;8.424;2023-04-07T08:31:00;10.50;;;4.20;;
76063;SDS011;64762;52.006;8.424;2023-04-07T08:33:25;11.30;;;5.03;;
76063;SDS011;64762;52.006;8.424;2023-04-07T08:35:51;12.00;;;5.60;;
76063;SDS011;64762;52.006;8.424;2023-04-07T08:38:16;12.90;;;5.90;;
76063;SDS011;64762;52.006;8.424;2023-04-07T08:40:41;14.03;;;5.13;;
76063;SDS011;64762;52.006;8.424;2023-04-07T08:43:07;13.00;;;5.30;;
76063;SDS011;64762;52.006;8.424;2023-04-07T08:45:36;13.35;;;5.85;;
76063;SDS011;64762;52.006;8.424;2023-04-07T08:48:03;12.10;;;5.15;;
76063;SDS011;64762;52.006;8.424;2023-04-07T08:50:35;10.93;;;5.55;;
76063;SDS011;64762;52.006;8.424;2023-04-07T08:53:01;12.55;;;5.78;;
76063;SDS011;64762;52.006;8.424;2023-04-07T08:55:30;9.10;;;4.63;;
76063;SDS011;64762;52.006;8.424;2023-04-07T08:57:56;16.10;;;5.73;;
76063;SDS011;64762;52.006;8.424;2023-04-07T09:00:21;11.57;;;5.05;;
76063;SDS011;64762;52.006;8.424;2023-04-07T09:02:47;11.15;;;5.18;;
76063;SDS011;64762;52.006;8.424;2023-04-07T09:05:13;9.95;;;4.75;;
76063;SDS011;64762;52.006;8.424;2023-04-07T09:07:38;10.10;;;3.78;;
76063;SDS011;64762;52.006;8.424;2023-04-07T09:10:04;11.95;;;4.10;;
76063;SDS011;64762;52.006;8.424;2023-04-07T09:12:30;8.82;;;3.78;;
76063;SDS011;64762;52.006;8.424;2023-04-07T09:14:56;10.10;;;3.72;;
76063;SDS011;64762;52.006;8.424;2023-04-07T09:17:23;9.88;;;4.20;;
76063;SDS011;64762;52.006;8.424;2023-04-07T09:19:52;9.55;;;4.25;;
76063;SDS011;64762;52.006;8.424;2023-04-07T09:22:36;9.57;;;4.05;;
76063;SDS011;64762;52.006;8.424;2023-04-07T09:25:13;12.07;;;4.30;;
76063;SDS011;64762;52.006;8.424;2023-04-07T09:27:40;9.93;;;4.25;;
76063;SDS011;64762;52.006;8.424;2023-04-07T09:30:09;7.93;;;3.53;;
76063;SDS011;64762;52.006;8.424;2023-04-07T09:32:36;10.52;;;3.80;;
76063;SDS011;64762;52.006;8.424;2023-04-07T09:35:05;9.10;;;4.53;;
76063;SDS011;64762;52.006;8.424;2023-04-07T09:37:31;10.80;;;3.97;;
76063;SDS011;64762;52.006;8.424;2023-04-07T09:39:56;10.23;;;4.33;;
76063;SDS011;64762;52.006;8.424;2023-04-07T09:42:21;12.37;;;4.50;;
76063;SDS011;64762;52.006;8.424;2023-04-07T09:44:47;10.40;;;4.57;;
76063;SDS011;64762;52.006;8.424;2023-04-07T09:47:12;11.75;;;4.70;;
76063;SDS011;64762;52.006;8.424;2023-04-07T09:49:48;9.13;;;4.15;;
76063;SDS011;64762;52.006;8.424;2023-04-07T09:52:17;8.73;;;4.00;;
76063;SDS011;64762;52.006;8.424;2023-04-07T09:54:44;9.07;;;3.72;;
76063;SDS011;64762;52.006;8.424;2023-04-07T09:57:11;8.98;;;4.40;;
76063;SDS011;64762;52.006;8.424;2023-04-07T09:59:37;7.07;;;4.25;;
76063;SDS011;64762;52.006;8.424;2023-04-07T10:02:04;9.25;;;4.00;;
76063;SDS011;64762;52.006;8.424;2023-04-07T10:04:30;9.93;;;4.43;;
76063;SDS011;64762;52.006;8.424;2023-04-07T10:06:56;9.10;;;4.18;;
76063;SDS011;64762;52.006;8.424;2023-04-07T10:09:23;10.73;;;4.20;;
76063;SDS011;64762;52.006;8.424;2023-04-07T10:11:50;10.18;;;4.53;;
76063;SDS011;64762;52.006;8.424;2023-04-07T10:14:17;11.18;;;4.88;;
76063;SDS011;64762;52.006;8.424;2023-04-07T10:16:43;9.35;;;4.05;;
76063;SDS011;64762;52.006;8.424;2023-04-07T10:19:08;8.85;;;4.20;;
76063;SDS011;64762;52.006;8.424;2023-04-07T10:21:35;10.30;;;4.93;;
76063;SDS011;64762;52.006;8.424;2023-04-07T10:24:18;11.55;;;5.35;;
76063;SDS011;64762;52.006;8.424;2023-04-07T10:26:52;16.90;;;5.95;;
76063;SDS011;64762;52.006;8.424;2023-04-07T10:29:19;11.05;;;4.70;;
76063;SDS011;64762;52.006;8.424;2023-04-07T10:31:45;9.65;;;4.70;;
76063;SDS011;64762;52.006;8.424;2023-04-07T10:34:10;12.00;;;4.80;;
76063;SDS011;64762;52.006;8.424;2023-04-07T10:36:36;9.77;;;4.70;;
76063;SDS011;64762;52.006;8.424;2023-04-07T10:39:34;9.35;;;3.78;;
76063;SDS011;64762;52.006;8.424;2023-04-07T10:42:01;9.50;;;4.35;;
76063;SDS011;64762;52.006;8.424;2023-04-07T10:47:07;15.25;;;5.65;;
76063;SDS011;64762;52.006;8.424;2023-04-07T10:49:33;10.43;;;4.55;;
76063;SDS011;64762;52.006;8.424;2023-04-07T10:54:36;11.07;;;4.78;;
76063;SDS011;64762;52.006;8.424;2023-04-07T10:59:31;12.37;;;5.20;;
76063;SDS011;64762;52.006;8.424;2023-04-07T11:04:41;8.27;;;4.07;;
76063;SDS011;64762;52.006;8.424;2023-04-07T11:07:08;10.45;;;4.18;;
76063;SDS011;64762;52.006;8.424;2023-04-07T11:09:34;9.80;;;4.25;;
76063;SDS011;64762;52.006;8.424;2023-04-07T11:12:00;8.25;;;3.92;;
76063;SDS011;64762;52.006;8.424;2023-04-07T11:14:25;13.10;;;4.80;;
76063;SDS011;64762;52.006;8.424;2023-04-07T11:16:52;9.13;;;4.55;;
76063;SDS011;64762;52.006;8.424;2023-04-07T11:19:17;8.95;;;4.10;;
76063;SDS011;64762;52.006;8.424;2023-04-07T11:21:42;9.05;;;4.30;;
76063;SDS011;64762;52.006;8.424;2023-04-07T11:24:08;8.77;;;3.97;;
76063;SDS011;64762;52.006;8.424;2023-04-07T11:26:37;8.60;;;4.03;;
76063;SDS011;64762;52.006;8.424;2023-04-07T11:29:03;9.48;;;4.82;;
76063;SDS011;64762;52.006;8.424;2023-04-07T11:31:29;11.03;;;4.73;;
76063;SDS011;64762;52.006;8.424;2023-04-07T11:33:56;9.82;;;4.93;;
76063;SDS011;64762;52.006;8.424;2023-04-07T11:36:30;10.15;;;5.28;;
76063;SDS011;64762;52.006;8.424;2023-04-07T11:39:17;11.25;;;4.70;;
76063;SDS011;64762;52.006;8.424;2023-04-07T11:41:45;9.80;;;4.82;;
76063;SDS011;64762;52.006;8.424;2023-04-07T11:44:12;11.50;;;5.78;;
76063;SDS011;64762;52.006;8.424;2023-04-07T11:46:51;9.98;;;4.97;;
76063;SDS011;64762;52.006;8.424;2023-04-07T11:49:21;10.68;;;5.57;;
76063;SDS011;64762;52.006;8.424;2023-04-07T11:52:01;12.13;;;5.22;;
76063;SDS011;64762;52.006;8.424;2023-04-07T11:54:44;11.10;;;5.50;;
76063;SDS011;64762;52.006;8.424;2023-04-07T11:57:22;12.75;;;5.57;;
76063;SDS011;64762;52.006;8.424;2023-04-07T11:59:48;14.63;;;5.03;;
76063;SDS011;64762;52.006;8.424;2023-04-07T12:02:29;11.97;;;5.53;;
76063;SDS011;64762;52.006;8.424;2023-04-07T12:04:56;12.15;;;5.97;;
76063;SDS011;64762;52.006;8.424;2023-04-07T12:07:21;11.57;;;5.77;;
76063;SDS011;64762;52.006;8.424;2023-04-07T12:09:46;11.90;;;5.40;;
76063;SDS011;64762;52.006;8.424;2023-04-07T12:12:12;11.47;;;5.63;;
76063;SDS011;64762;52.006;8.424;2023-04-07T12:14:37;11.10;;;5.37;;
76063;SDS011;64762;52.006;8.424;2023-04-07T12:17:02;11.25;;;5.22;;
76063;SDS011;64762;52.006;8.424;2023-04-07T12:19:28;16.10;;;6.33;;
76063;SDS011;64762;52.006;8.424;2023-04-07T12:21:54;11.35;;;5.47;;
76063;SDS011;64762;52.006;8.424;2023-04-07T12:24:20;14.55;;;6.43;;
76063;SDS011;64762;52.006;8.424;2023-04-07T12:26:46;15.40;;;6.88;;
76063;SDS011;64762;52.006;8.424;2023-04-07T12:29:12;11.52;;;6.13;;
76063;SDS011;64762;52.006;8.424;2023-04-07T12:31:37;11.20;;;5.63;;
76063;SDS011;64762;52.006;8.424;2023-04-07T12:34:03;12.50;;;5.80;;
76063;SDS011;64762;52.006;8.424;2023-04-07T12:36:28;11.97;;;5.97;;
76063;SDS011;64762;52.006;8.424;2023-04-07T12:38:54;10.77;;;4.93;;
76063;SDS011;64762;52.006;8.424;2023-04-07T12:41:20;11.82;;;5.75;;
76063;SDS011;64762;52.006;8.424;2023-04-07T12:43:45;11.73;;;5.83;;
76063;SDS011;64762;52.006;8.424;2023-04-07T12:46:10;15.93;;;6.70;;
76063;SDS011;64762;52.006;8.424;2023-04-07T12:48:36;12.27;;;5.95;;
76063;SDS011;64762;52.006;8.424;2023-04-07T12:51:03;11.48;;;5.75;;
76063;SDS011;64762;52.006;8.424;2023-04-07T12:53:29;12.55;;;5.60;;
76063;SDS011;64762;52.006;8.424;2023-04-07T12:55:54;10.85;;;5.72;;
76063;SDS011;64762;52.006;8.424;2023-04-07T12:58:20;12.35;;;5.38;;
76063;SDS011;64762;52.006;8.424;2023-04-07T13:00:46;12.57;;;5.80;;
76063;SDS011;64762;52.006;8.424;2023-04-07T13:03:11;13.18;;;6.70;;
76063;SDS011;64762;52.006;8.424;2023-04-07T13:05:37;10.07;;;5.88;;
76063;SDS011;64762;52.006;8.424;2023-04-07T13:08:03;12.80;;;6.00;;
76063;SDS011;64762;52.006;8.424;2023-04-07T13:10:28;12.63;;;6.25;;
76063;SDS011;64762;52.006;8.424;2023-04-07T13:12:53;11.13;;;5.87;;
76063;SDS011;64762;52.006;8.424;2023-04-07T13:15:19;13.00;;;5.75;;
76063;SDS011;64762;52.006;8.424;2023-04-07T13:17:45;10.98;;;5.13;;
76063;SDS011;64762;52.006;8.424;2023-04-07T13:20:10;10.40;;;5.10;;
76063;SDS011;64762;52.006;8.424;2023-04-07T13:22:35;10.60;;;5.45;;
76063;SDS011;64762;52.006;8.424;2023-04-07T13:25:01;12.57;;;5.93;;
76063;SDS011;64762;52.006;8.424;2023-04-07T13:27:26;11.07;;;5.13;;
76063;SDS011;64762;52.006;8.424;2023-04-07T13:29:51;8.57;;;5.13;;
76063;SDS011;64762;52.006;8.424;2023-04-07T13:32:17;9.50;;;5.27;;
76063;SDS011;64762;52.006;8.424;2023-04-07T13:34:42;11.23;;;5.80;;
76063;SDS011;64762;52.006;8.424;2023-04-07T13:37:08;9.23;;;5.22;;
76063;SDS011;64762;52.006;8.424;2023-04-07T13:39:34;13.60;;;5.53;;
76063;SDS011;64762;52.006;8.424;2023-04-07T13:41:59;10.57;;;5.50;;
76063;SDS011;64762;52.006;8.424;2023-04-07T13:44:25;13.03;;;5.83;;
76063;SDS011;64762;52.006;8.424;2023-04-07T13:46:51;11.82;;;6.05;;
76063;SDS011;64762;52.006;8.424;2023-04-07T13:49:17;11.68;;;5.38;;
76063;SDS011;64762;52.006;8.424;2023-04-07T13:51:42;11.87;;;5.70;;
76063;SDS011;64762;52.006;8.424;2023-04-07T13:54:07;11.50;;;5.97;;
76063;SDS011;64762;52.006;8.424;2023-04-07T13:56:33;13.10;;;6.10;;
76063;SDS011;64762;52.006;8.424;2023-04-07T13:58:59;12.23;;;5.88;;
76063;SDS011;64762;52.006;8.424;2023-04-07T14:01:25;12.93;;;6.22;;
76063;SDS011;64762;52.006;8.424;2023-04-07T14:03:51;12.57;;;6.30;;
76063;SDS011;64762;52.006;8.424;2023-04-07T14:06:17;13.73;;;6.03;;
76063;SDS011;64762;52.006;8.424;2023-04-07T14:08:42;12.73;;;5.93;;
76063;SDS011;64762;52.006;8.424;2023-04-07T14:11:08;11.00;;;5.63;;
76063;SDS011;64762;52.006;8.424;2023-04-07T14:13:33;11.37;;;5.80;;
76063;SDS011;64762;52.006;8.424;2023-04-07T14:15:58;14.77;;;6.57;;
76063;SDS011;64762;52.006;8.424;2023-04-07T14:18:23;13.63;;;6.97;;
76063;SDS011;64762;52.006;8.424;2023-04-07T14:20:51;14.38;;;6.97;;
76063;SDS011;64762;52.006;8.424;2023-04-07T14:23:17;18.97;;;6.20;;
76063;SDS011;64762;52.006;8.424;2023-04-07T14:25:42;15.73;;;7.20;;
76063;SDS011;64762;52.006;8.424;2023-04-07T14:28:07;14.73;;;6.50;;
76063;SDS011;64762;52.006;8.424;2023-04-07T14:30:36;17.55;;;7.93;;
76063;SDS011;64762;52.006;8.424;2023-04-07T14:33:04;12.45;;;5.97;;
76063;SDS011;64762;52.006;8.424;2023-04-07T14:35:30;12.97;;;6.53;;
76063;SDS011;64762;52.006;8.424;2023-04-07T14:37:55;12.85;;;6.22;;
76063;SDS011;64762;52.006;8.424;2023-04-07T14:40:20;12.60;;;6.37;;
76063;SDS011;64762;52.006;8.424;2023-04-07T14:42:46;14.90;;;6.67;;
76063;SDS011;64762;52.006;8.424;2023-04-07T14:45:11;13.53;;;6.77;;